Time;durP1;ratioP1;P1;durP2;ratioP2;P2;SDS_P1;SDS_P2;PMS_P1;PMS_P2;Temp;Humidity;BMP_temperature;BMP_pressure;BME280_temperature;BME280_humidity;BME280_pressure;Samples;Min_cycle;Max_cycle;Signal;HPM_P1;HPM_P2
2021/10/22 00:01:17;;;;;;;1.00;0.90;;;;;;;;;;5022212;28;20828;-46
2021/10/22 00:03:43;;;;;;;1.48;0.95;;;;;;;;;;5028763;28;20175;-46
2021/10/22 00:06:09;;;;;;;1.10;0.95;;;;;;;;;;5015481;28;20212;-46
2021/10/22 00:08:35;;;;;;;1.70;0.90;;;;;;;;;;5021788;28;20195;-46
2021/10/22 00:11:01;;;;;;;1.48;0.90;;;;;;;;;;5019783;28;20219;-46
2021/10/22 00:13:27;;;;;;;1.63;1.10;;;;;;;;;;5014329;28;20214;-46
2021/10/22 00:15:53;;;;;;;2.13;1.05;;;;;;;;;;5018379;28;20884;-46
2021/10/22 00:18:20;;;;;;;0.93;0.80;;;;;;;;;;5016167;28;20184;-46
2021/10/22 00:20:47;;;;;;;1.88;1.00;;;;;;;;;;5022577;28;20547;-46
2021/10/22 00:23:13;;;;;;;1.15;0.88;;;;;;;;;;5034032;28;20215;-46
2021/10/22 00:25:39;;;;;;;1.10;0.93;;;;;;;;;;5025383;28;21009;-46
2021/10/22 00:28:05;;;;;;;1.58;0.90;;;;;;;;;;5033652;28;20246;-46
2021/10/22 00:30:31;;;;;;;1.33;0.80;;;;;;;;;;5025901;28;20192;-46
2021/10/22 00:32:57;;;;;;;1.67;0.98;;;;;;;;;;5018669;28;20583;-45
2021/10/22 00:35:23;;;;;;;1.00;0.80;;;;;;;;;;5028083;28;20229;-46
2021/10/22 00:37:49;;;;;;;2.33;0.90;;;;;;;;;;5040271;28;20179;-46
2021/10/22 00:40:16;;;;;;;1.58;0.90;;;;;;;;;;5031802;28;20471;-46
2021/10/22 00:42:43;;;;;;;1.52;0.80;;;;;;;;;;5040880;28;20183;-45
2021/10/22 00:45:09;;;;;;;1.25;0.80;;;;;;;;;;5031395;28;20208;-46
2021/10/22 00:47:36;;;;;;;0.70;0.70;;;;;;;;;;5036926;28;20499;-46
2021/10/22 00:50:02;;;;;;;1.90;1.00;;;;;;;;;;5036809;28;20175;-45
2021/10/22 00:52:28;;;;;;;0.98;0.75;;;;;;;;;;5037511;28;20258;-46
2021/10/22 00:54:54;;;;;;;1.23;0.82;;;;;;;;;;5034397;28;20505;-45
2021/10/22 00:57:21;;;;;;;0.75;0.75;;;;;;;;;;5040641;28;20332;-46
2021/10/22 00:59:47;;;;;;;1.40;0.80;;;;;;;;;;5032046;28;20195;-46
2021/10/22 01:02:13;;;;;;;0.90;0.90;;;;;;;;;;5039670;28;20581;-46
2021/10/22 01:04:39;;;;;;;1.38;0.60;;;;;;;;;;5038151;28;20229;-46
2021/10/22 01:07:06;;;;;;;1.60;0.95;;;;;;;;;;5020943;28;20575;-46
2021/10/22 01:09:33;;;;;;;1.80;0.80;;;;;;;;;;5024476;28;20259;-46
2021/10/22 01:11:59;;;;;;;2.03;0.85;;;;;;;;;;5039820;28;20171;-45
2021/10/22 01:14:25;;;;;;;1.23;0.77;;;;;;;;;;5038174;28;20610;-46
2021/10/22 01:16:51;;;;;;;1.10;1.00;;;;;;;;;;5027631;28;20187;-46
2021/10/22 01:19:17;;;;;;;1.58;0.90;;;;;;;;;;5020825;28;20196;-45
2021/10/22 01:21:46;;;;;;;0.93;0.80;;;;;;;;;;5034283;28;20530;-46
2021/10/22 01:24:12;;;;;;;1.38;0.80;;;;;;;;;;5033890;28;20670;-46
2021/10/22 01:26:38;;;;;;;0.68;0.63;;;;;;;;;;5033012;28;20783;-46
2021/10/22 01:29:04;;;;;;;1.23;0.57;;;;;;;;;;5030565;28;20176;-45
2021/10/22 01:31:31;;;;;;;1.80;0.63;;;;;;;;;;5021581;28;20473;-46
2021/10/22 01:33:57;;;;;;;0.75;0.60;;;;;;;;;;5020226;28;20175;-46
2021/10/22 01:36:24;;;;;;;2.05;1.00;;;;;;;;;;5030601;28;20241;-46
2021/10/22 01:38:50;;;;;;;0.68;0.52;;;;;;;;;;5027275;28;20531;-46
2021/10/22 01:41:17;;;;;;;1.05;0.73;;;;;;;;;;5032766;28;20569;-46
2021/10/22 01:43:44;;;;;;;0.80;0.80;;;;;;;;;;5018879;28;20259;-46
2021/10/22 01:46:11;;;;;;;1.27;0.70;;;;;;;;;;5024042;28;20207;-46
2021/10/22 01:48:37;;;;;;;1.05;0.60;;;;;;;;;;5036990;28;20233;-46
2021/10/22 01:51:04;;;;;;;1.05;0.70;;;;;;;;;;5031020;28;20536;-45
2021/10/22 01:53:30;;;;;;;0.77;0.60;;;;;;;;;;5022188;28;20226;-46
2021/10/22 01:55:56;;;;;;;0.77;0.77;;;;;;;;;;5031298;28;20180;-46
2021/10/22 01:58:22;;;;;;;1.13;0.68;;;;;;;;;;5033792;28;20537;-46
2021/10/22 02:00:48;;;;;;;0.90;0.75;;;;;;;;;;5025589;28;20232;-46
2021/10/22 02:03:14;;;;;;;1.85;0.70;;;;;;;;;;5036234;28;20259;-46
2021/10/22 02:05:40;;;;;;;1.05;0.70;;;;;;;;;;5030265;28;20206;-46
2021/10/22 02:08:06;;;;;;;0.85;0.75;;;;;;;;;;5035967;28;20178;-46
2021/10/22 02:10:32;;;;;;;2.00;0.70;;;;;;;;;;5026276;28;20172;-45
2021/10/22 02:12:58;;;;;;;2.90;0.77;;;;;;;;;;5029237;28;20219;-46
2021/10/22 02:15:25;;;;;;;1.23;0.80;;;;;;;;;;5033690;28;20187;-46
2021/10/22 02:17:51;;;;;;;0.82;0.60;;;;;;;;;;5029795;28;20407;-46
2021/10/22 02:20:17;;;;;;;2.58;0.77;;;;;;;;;;5033867;28;20190;-46
2021/10/22 02:22:43;;;;;;;1.40;0.75;;;;;;;;;;5017445;28;20556;-46
2021/10/22 02:25:09;;;;;;;1.90;0.93;;;;;;;;;;5025347;28;20467;-45
2021/10/22 02:27:36;;;;;;;0.60;0.50;;;;;;;;;;5018175;28;20591;-46
2021/10/22 02:30:03;;;;;;;1.50;0.75;;;;;;;;;;5023824;28;20196;-46
2021/10/22 02:32:29;;;;;;;1.98;0.80;;;;;;;;;;5018063;28;20164;-46
2021/10/22 02:34:55;;;;;;;1.20;0.50;;;;;;;;;;5029177;28;20232;-46
2021/10/22 02:37:21;;;;;;;0.70;0.60;;;;;;;;;;5019218;28;20476;-46
2021/10/22 02:39:47;;;;;;;1.15;0.73;;;;;;;;;;5020280;28;20191;-46
2021/10/22 02:42:13;;;;;;;0.75;0.73;;;;;;;;;;5028987;28;20180;-46
2021/10/22 02:44:39;;;;;;;0.82;0.80;;;;;;;;;;5034889;28;20208;-46
2021/10/22 02:47:05;;;;;;;2.22;0.70;;;;;;;;;;5024419;28;20295;-46
2021/10/22 02:49:32;;;;;;;0.90;0.70;;;;;;;;;;5031322;28;20202;-46
2021/10/22 02:51:58;;;;;;;0.98;0.70;;;;;;;;;;5035499;28;20172;-46
2021/10/22 02:54:24;;;;;;;1.23;0.70;;;;;;;;;;5025175;28;20196;-46
2021/10/22 02:56:50;;;;;;;1.15;0.60;;;;;;;;;;5022060;28;20177;-46
2021/10/22 02:59:16;;;;;;;2.40;0.70;;;;;;;;;;5034555;28;20184;-46
2021/10/22 03:01:42;;;;;;;2.10;0.70;;;;;;;;;;5036078;28;20188;-46
2021/10/22 03:04:09;;;;;;;1.33;0.75;;;;;;;;;;5023504;28;20180;-45
2021/10/22 03:06:35;;;;;;;1.77;0.85;;;;;;;;;;5024430;28;20196;-46
2021/10/22 03:09:01;;;;;;;1.10;0.60;;;;;;;;;;5033989;28;20180;-45
2021/10/22 03:11:27;;;;;;;1.30;0.60;;;;;;;;;;5034507;28;20184;-46
2021/10/22 03:13:53;;;;;;;1.60;0.73;;;;;;;;;;5035263;28;20171;-46
2021/10/22 03:16:19;;;;;;;1.27;0.70;;;;;;;;;;5022447;28;20191;-46
2021/10/22 03:18:47;;;;;;;1.13;0.75;;;;;;;;;;5015992;28;20172;-45
2021/10/22 03:21:13;;;;;;;1.33;0.90;;;;;;;;;;5023219;28;20186;-45
2021/10/22 03:23:39;;;;;;;0.77;0.60;;;;;;;;;;5016155;28;20184;-46
2021/10/22 03:26:05;;;;;;;1.20;0.65;;;;;;;;;;5022266;28;20300;-46
2021/10/22 03:28:31;;;;;;;0.77;0.60;;;;;;;;;;5035614;28;20176;-45
2021/10/22 03:30:57;;;;;;;0.90;0.70;;;;;;;;;;5018154;28;20192;-46
2021/10/22 03:33:23;;;;;;;0.70;0.55;;;;;;;;;;5031614;28;20245;-46
2021/10/22 03:35:49;;;;;;;1.00;0.68;;;;;;;;;;5025916;28;20193;-45
2021/10/22 03:38:15;;;;;;;2.50;0.75;;;;;;;;;;5015810;28;20270;-46
2021/10/22 03:40:41;;;;;;;2.10;0.80;;;;;;;;;;5030342;28;20579;-46
2021/10/22 03:43:07;;;;;;;1.13;0.70;;;;;;;;;;5034762;28;20611;-46
2021/10/22 03:45:33;;;;;;;1.75;0.90;;;;;;;;;;5027648;28;20290;-46
2021/10/22 03:47:59;;;;;;;0.90;0.60;;;;;;;;;;5034718;28;20176;-46
2021/10/22 03:50:26;;;;;;;0.70;0.68;;;;;;;;;;5033341;28;20729;-45
2021/10/22 03:52:52;;;;;;;1.55;0.90;;;;;;;;;;5034666;28;20176;-46
2021/10/22 03:55:18;;;;;;;0.65;0.65;;;;;;;;;;5028272;28;20527;-46
2021/10/22 03:57:44;;;;;;;1.52;0.70;;;;;;;;;;5023918;28;20249;-46
2021/10/22 04:00:11;;;;;;;2.05;0.80;;;;;;;;;;5028087;28;20590;-46
2021/10/22 04:02:37;;;;;;;1.85;0.70;;;;;;;;;;5034740;28;20175;-46
2021/10/22 04:05:06;;;;;;;1.70;0.70;;;;;;;;;;5031722;28;20282;-46
2021/10/22 04:07:32;;;;;;;2.30;0.90;;;;;;;;;;5030198;28;20184;-46
2021/10/22 04:09:58;;;;;;;1.15;0.65;;;;;;;;;;5032124;28;20176;-46
2021/10/22 04:12:24;;;;;;;1.58;0.80;;;;;;;;;;5034064;28;20168;-45
2021/10/22 04:14:50;;;;;;;2.17;1.00;;;;;;;;;;5027264;28;20259;-45
2021/10/22 04:17:16;;;;;;;5.03;1.85;;;;;;;;;;5020047;28;20457;-46
2021/10/22 04:19:44;;;;;;;5.95;1.90;;;;;;;;;;5020418;28;20195;-46
2021/10/22 04:22:10;;;;;;;6.13;2.08;;;;;;;;;;5022647;28;20176;-46
2021/10/22 04:24:36;;;;;;;4.03;1.27;;;;;;;;;;5014113;28;20196;-45
2021/10/22 04:27:03;;;;;;;7.13;1.70;;;;;;;;;;5020395;28;20187;-45
2021/10/22 04:29:29;;;;;;;6.45;1.42;;;;;;;;;;5018901;28;20574;-46
2021/10/22 04:31:55;;;;;;;5.85;1.77;;;;;;;;;;5014658;28;20200;-46
2021/10/22 04:34:24;;;;;;;6.40;1.50;;;;;;;;;;5022073;28;20187;-46
2021/10/22 04:36:50;;;;;;;4.88;1.48;;;;;;;;;;5020181;28;20184;-46
2021/10/22 04:42:01;;;;;;;6.03;1.73;;;;;;;;;;5014825;28;20187;-46
2021/10/22 04:44:30;;;;;;;8.23;1.85;;;;;;;;;;5016565;28;20195;-46
2021/10/22 04:46:56;;;;;;;6.15;1.73;;;;;;;;;;5029358;28;20464;-46
2021/10/22 04:49:22;;;;;;;4.38;1.45;;;;;;;;;;5033957;28;20473;-45
2021/10/22 04:51:48;;;;;;;6.97;1.60;;;;;;;;;;5034287;28;20259;-45
2021/10/22 04:54:14;;;;;;;7.97;1.73;;;;;;;;;;5026488;28;20845;-46
2021/10/22 04:56:40;;;;;;;6.03;1.73;;;;;;;;;;5028164;28;20179;-45
2021/10/22 04:59:06;;;;;;;4.35;1.50;;;;;;;;;;5029248;28;20574;-45
2021/10/22 05:01:32;;;;;;;4.60;1.70;;;;;;;;;;5014233;28;20193;-45
2021/10/22 05:03:58;;;;;;;5.00;1.85;;;;;;;;;;5013835;28;20259;-45
2021/10/22 05:06:24;;;;;;;7.60;2.00;;;;;;;;;;5026356;28;20270;-46
2021/10/22 05:08:50;;;;;;;6.47;1.95;;;;;;;;;;5029593;28;20180;-46
2021/10/22 05:11:16;;;;;;;6.18;2.03;;;;;;;;;;5029555;28;20187;-46
2021/10/22 05:13:42;;;;;;;6.22;1.80;;;;;;;;;;5028607;28;20607;-47
2021/10/22 05:16:08;;;;;;;7.68;2.10;;;;;;;;;;5022548;28;20179;-46
2021/10/22 05:18:34;;;;;;;4.25;1.33;;;;;;;;;;5021550;28;20216;-45
2021/10/22 05:21:00;;;;;;;4.90;1.67;;;;;;;;;;5018867;28;20185;-45
2021/10/22 05:23:26;;;;;;;4.28;1.45;;;;;;;;;;5017617;28;20247;-46
2021/10/22 05:25:52;;;;;;;4.15;1.67;;;;;;;;;;5022188;28;20200;-45
2021/10/22 05:28:18;;;;;;;3.80;1.58;;;;;;;;;;5027966;28;20599;-46
2021/10/22 05:30:44;;;;;;;3.47;1.30;;;;;;;;;;5020952;28;20254;-45
2021/10/22 05:33:12;;;;;;;5.10;1.30;;;;;;;;;;5018192;28;20172;-45
2021/10/22 05:35:38;;;;;;;4.43;1.65;;;;;;;;;;5029780;28;20198;-45
2021/10/22 05:38:05;;;;;;;5.38;1.50;;;;;;;;;;5024961;28;20179;-45
2021/10/22 05:40:31;;;;;;;4.30;1.50;;;;;;;;;;5036208;28;20575;-45
2021/10/22 05:42:57;;;;;;;3.78;1.48;;;;;;;;;;5035728;28;20722;-45
2021/10/22 05:45:23;;;;;;;2.80;1.38;;;;;;;;;;5028737;28;20204;-45
2021/10/22 05:47:49;;;;;;;2.60;1.25;;;;;;;;;;5034492;28;20504;-45
2021/10/22 05:50:16;;;;;;;5.35;1.40;;;;;;;;;;5031545;28;20185;-45
2021/10/22 05:52:42;;;;;;;3.17;1.33;;;;;;;;;;5022567;28;20228;-45
2021/10/22 05:55:08;;;;;;;6.60;1.58;;;;;;;;;;5027999;28;20575;-46
2021/10/22 05:57:34;;;;;;;4.80;1.52;;;;;;;;;;5031713;28;20468;-46
2021/10/22 06:00:00;;;;;;;3.15;1.45;;;;;;;;;;5028759;28;20468;-45
2021/10/22 06:02:26;;;;;;;2.95;1.40;;;;;;;;;;5031339;28;20261;-45
2021/10/22 06:04:52;;;;;;;4.28;1.38;;;;;;;;;;5027030;28;20615;-45
2021/10/22 06:07:18;;;;;;;4.22;1.50;;;;;;;;;;5033316;28;20271;-45
2021/10/22 06:09:44;;;;;;;2.47;1.20;;;;;;;;;;5022760;28;20186;-45
2021/10/22 06:12:11;;;;;;;2.50;1.25;;;;;;;;;;5019533;28;20173;-46
2021/10/22 06:14:38;;;;;;;6.35;1.45;;;;;;;;;;5037812;28;20223;-46
2021/10/22 06:17:04;;;;;;;3.88;1.38;;;;;;;;;;5025654;28;20206;-46
2021/10/22 06:19:34;;;;;;;2.92;1.25;;;;;;;;;;5036390;28;20184;-46
2021/10/22 06:24:33;;;;;;;3.83;1.30;;;;;;;;;;5032262;28;20510;-45
2021/10/22 06:26:59;;;;;;;2.78;1.58;;;;;;;;;;5016652;28;20176;-46
2021/10/22 06:29:25;;;;;;;2.90;1.10;;;;;;;;;;5016448;28;20165;-45
2021/10/22 06:31:51;;;;;;;4.28;1.40;;;;;;;;;;5016034;28;20468;-46
2021/10/22 06:34:19;;;;;;;6.03;1.30;;;;;;;;;;5015350;28;20223;-45
2021/10/22 06:36:45;;;;;;;2.60;1.33;;;;;;;;;;5036298;28;20164;-46
2021/10/22 06:39:11;;;;;;;2.00;1.25;;;;;;;;;;5036418;28;20168;-46
2021/10/22 06:41:38;;;;;;;2.72;1.33;;;;;;;;;;5031032;28;20180;-46
2021/10/22 06:44:04;;;;;;;2.90;1.60;;;;;;;;;;5015839;28;20157;-46
2021/10/22 06:46:30;;;;;;;3.40;1.40;;;;;;;;;;5037316;28;20278;-45
2021/10/22 06:48:56;;;;;;;4.65;1.38;;;;;;;;;;5036914;28;20175;-45
2021/10/22 06:51:22;;;;;;;4.60;1.30;;;;;;;;;;5035904;28;20503;-46
2021/10/22 06:53:49;;;;;;;3.88;1.25;;;;;;;;;;5035103;28;20813;-46
2021/10/22 06:56:15;;;;;;;2.40;1.10;;;;;;;;;;5032029;28;20188;-46
2021/10/22 06:58:41;;;;;;;2.17;1.13;;;;;;;;;;5035063;28;20279;-46
2021/10/22 07:01:07;;;;;;;3.08;1.10;;;;;;;;;;5036118;28;20195;-45
2021/10/22 07:03:41;;;;;;;5.03;1.50;;;;;;;;;;5034777;28;20187;-45
2021/10/22 07:08:55;;;;;;;2.40;1.25;;;;;;;;;;5022177;28;20184;-46
2021/10/22 07:11:22;;;;;;;4.18;1.27;;;;;;;;;;5017590;28;20181;-45
2021/10/22 07:13:55;;;;;;;3.38;1.35;;;;;;;;;;5015791;28;20165;-45
2021/10/22 07:16:22;;;;;;;3.75;1.30;;;;;;;;;;5031628;28;20184;-46
2021/10/22 07:18:51;;;;;;;2.95;1.23;;;;;;;;;;5035865;28;20172;-45
2021/10/22 07:21:18;;;;;;;4.00;1.20;;;;;;;;;;5035954;28;20176;-46
2021/10/22 07:23:46;;;;;;;2.67;1.20;;;;;;;;;;5034607;28;20254;-45
2021/10/22 07:26:13;;;;;;;4.72;1.17;;;;;;;;;;5020932;28;20212;-46
2021/10/22 07:28:39;;;;;;;2.10;1.17;;;;;;;;;;5022618;28;20183;-46
2021/10/22 07:31:05;;;;;;;3.28;1.35;;;;;;;;;;5025540;28;20220;-45
2021/10/22 07:33:31;;;;;;;2.55;0.93;;;;;;;;;;5030846;28;20176;-46
2021/10/22 07:35:57;;;;;;;4.10;1.33;;;;;;;;;;5025190;28;20495;-46
2021/10/22 07:38:24;;;;;;;3.33;1.25;;;;;;;;;;5035540;28;20233;-45
2021/10/22 07:40:50;;;;;;;4.03;1.50;;;;;;;;;;5035490;28;20188;-45
2021/10/22 07:43:18;;;;;;;6.75;1.60;;;;;;;;;;5034953;28;20183;-46
2021/10/22 07:45:44;;;;;;;2.88;1.52;;;;;;;;;;5034079;28;20238;-46
2021/10/22 07:48:10;;;;;;;7.93;1.90;;;;;;;;;;5035052;28;20210;-45
2021/10/22 07:50:37;;;;;;;6.53;1.60;;;;;;;;;;5034710;28;20270;-45
2021/10/22 07:53:03;;;;;;;6.45;1.75;;;;;;;;;;5030220;28;20227;-45
2021/10/22 07:55:29;;;;;;;3.10;1.30;;;;;;;;;;5021818;28;20179;-45
2021/10/22 07:57:55;;;;;;;7.40;1.45;;;;;;;;;;5032905;28;20183;-45
2021/10/22 08:00:21;;;;;;;4.43;1.45;;;;;;;;;;5031644;28;20249;-45
2021/10/22 08:02:47;;;;;;;6.80;1.40;;;;;;;;;;5021090;28;20241;-45
2021/10/22 08:05:13;;;;;;;2.17;1.15;;;;;;;;;;5029233;28;20207;-45
2021/10/22 08:07:41;;;;;;;2.15;1.48;;;;;;;;;;5026552;28;20190;-46
2021/10/22 08:10:07;;;;;;;2.78;1.20;;;;;;;;;;5030907;28;20225;-45
2021/10/22 08:12:34;;;;;;;6.07;1.42;;;;;;;;;;5033969;28;20218;-47
2021/10/22 08:15:00;;;;;;;5.57;1.55;;;;;;;;;;5031060;28;20183;-46
2021/10/22 08:17:26;;;;;;;3.45;1.60;;;;;;;;;;5025960;28;20184;-45
2021/10/22 08:19:57;;;;;;;4.88;1.52;;;;;;;;;;5025893;28;20555;-45
2021/10/22 08:22:31;;;;;;;6.25;1.50;;;;;;;;;;5034758;28;20551;-45
2021/10/22 08:25:01;;;;;;;4.22;1.60;;;;;;;;;;5018256;28;20506;-47
2021/10/22 08:27:28;;;;;;;6.75;1.67;;;;;;;;;;5018162;28;20183;-45
2021/10/22 08:29:55;;;;;;;3.17;1.45;;;;;;;;;;5023062;28;20180;-46
2021/10/22 08:32:21;;;;;;;4.88;1.48;;;;;;;;;;5032941;28;20199;-45
2021/10/22 08:34:47;;;;;;;4.13;1.67;;;;;;;;;;5027504;28;20263;-45
2021/10/22 08:37:13;;;;;;;2.15;1.17;;;;;;;;;;5026847;28;20305;-46
2021/10/22 08:39:44;;;;;;;4.28;1.30;;;;;;;;;;5034463;28;20168;-46
2021/10/22 08:42:11;;;;;;;2.55;1.25;;;;;;;;;;5014855;28;20235;-45
2021/10/22 08:44:38;;;;;;;3.60;1.42;;;;;;;;;;5026780;28;20210;-46
2021/10/22 08:47:04;;;;;;;3.67;1.40;;;;;;;;;;5033441;28;20202;-45
2021/10/22 08:49:32;;;;;;;2.83;1.42;;;;;;;;;;5033696;28;20237;-45
2021/10/22 08:51:59;;;;;;;6.13;1.80;;;;;;;;;;5027920;28;20510;-46
2021/10/22 08:54:26;;;;;;;4.03;1.55;;;;;;;;;;5028210;28;20168;-45
2021/10/22 08:56:52;;;;;;;4.80;1.63;;;;;;;;;;5029356;28;20190;-46
2021/10/22 08:59:18;;;;;;;5.72;1.30;;;;;;;;;;5027763;28;20180;-45
2021/10/22 09:02:03;;;;;;;4.97;1.80;;;;;;;;;;5019286;28;20275;-45
2021/10/22 09:04:35;;;;;;;6.63;1.88;;;;;;;;;;5022706;28;20650;-46
2021/10/22 09:07:01;;;;;;;4.07;1.67;;;;;;;;;;5019606;28;20179;-45
2021/10/22 09:09:27;;;;;;;4.57;1.75;;;;;;;;;;5021220;28;20180;-45
2021/10/22 09:11:53;;;;;;;5.68;1.55;;;;;;;;;;5036037;28;20179;-45
2021/10/22 09:14:19;;;;;;;4.65;1.38;;;;;;;;;;5037560;28;20547;-46
2021/10/22 09:16:50;;;;;;;4.57;1.30;;;;;;;;;;5035662;28;20255;-45
2021/10/22 09:19:35;;;;;;;3.88;1.63;;;;;;;;;;5019258;28;20204;-45
2021/10/22 09:22:22;;;;;;;3.38;1.42;;;;;;;;;;5018142;28;20214;-46
2021/10/22 09:24:55;;;;;;;8.05;1.73;;;;;;;;;;5027601;28;20196;-45
2021/10/22 09:27:51;;;;;;;8.00;1.98;;;;;;;;;;5037691;28;20709;-45
2021/10/22 09:30:31;;;;;;;3.15;1.60;;;;;;;;;;5020587;28;20222;-47
2021/10/22 09:33:24;;;;;;;4.32;1.77;;;;;;;;;;5026367;28;20569;-45
2021/10/22 09:35:50;;;;;;;2.90;1.08;;;;;;;;;;5025334;28;20196;-46
2021/10/22 09:38:24;;;;;;;6.00;1.52;;;;;;;;;;5023764;28;20451;-46
2021/10/22 09:40:52;;;;;;;4.57;1.38;;;;;;;;;;5025058;28;20180;-45
2021/10/22 09:43:23;;;;;;;3.03;1.58;;;;;;;;;;5019303;28;20258;-46
2021/10/22 09:45:51;;;;;;;3.42;1.65;;;;;;;;;;5029242;28;20235;-45
2021/10/22 09:48:37;;;;;;;4.10;1.63;;;;;;;;;;5021844;28;20207;-46
2021/10/22 09:51:22;;;;;;;6.18;1.40;;;;;;;;;;5024554;28;20183;-45
2021/10/22 09:53:49;;;;;;;4.10;1.70;;;;;;;;;;5023009;28;20191;-45
2021/10/22 09:56:29;;;;;;;6.45;1.67;;;;;;;;;;5023454;28;20180;-45
2021/10/22 09:58:55;;;;;;;5.20;1.40;;;;;;;;;;5030073;28;20199;-45
2021/10/22 10:01:21;;;;;;;6.82;1.73;;;;;;;;;;5024159;28;20218;-45
2021/10/22 10:03:47;;;;;;;4.75;1.25;;;;;;;;;;5019953;28;20557;-45
2021/10/22 10:06:13;;;;;;;4.43;1.33;;;;;;;;;;5021614;28;20213;-45
2021/10/22 10:08:40;;;;;;;3.58;1.83;;;;;;;;;;5018154;28;20173;-45
2021/10/22 10:11:07;;;;;;;2.90;1.38;;;;;;;;;;5023606;28;20184;-45
2021/10/22 10:13:33;;;;;;;5.55;1.50;;;;;;;;;;5027761;28;20255;-45
2021/10/22 10:16:00;;;;;;;3.70;1.30;;;;;;;;;;5021685;28;20184;-45
2021/10/22 10:18:26;;;;;;;5.50;1.50;;;;;;;;;;5027884;28;20188;-45
2021/10/22 10:20:53;;;;;;;5.55;1.48;;;;;;;;;;5020611;28;20204;-45
2021/10/22 10:23:20;;;;;;;6.00;1.80;;;;;;;;;;5027187;28;20195;-45
2021/10/22 10:25:47;;;;;;;4.97;1.60;;;;;;;;;;5021642;28;20219;-45
2021/10/22 10:28:14;;;;;;;4.60;1.63;;;;;;;;;;5023954;28;20181;-45
2021/10/22 10:30:41;;;;;;;3.70;1.60;;;;;;;;;;5019849;28;20502;-45
2021/10/22 10:33:09;;;;;;;4.47;1.60;;;;;;;;;;5028418;28;20635;-45
2021/10/22 10:35:37;;;;;;;2.72;1.30;;;;;;;;;;5028111;28;20183;-45
2021/10/22 10:38:03;;;;;;;3.63;1.40;;;;;;;;;;5030556;28;20538;-45
2021/10/22 10:40:31;;;;;;;5.85;1.40;;;;;;;;;;5019746;28;20200;-45
2021/10/22 10:43:01;;;;;;;4.57;1.35;;;;;;;;;;5032210;28;20188;-45
2021/10/22 10:45:27;;;;;;;2.65;1.30;;;;;;;;;;5027058;28;20658;-45
2021/10/22 10:47:58;;;;;;;3.92;1.50;;;;;;;;;;5033629;28;20202;-45
2021/10/22 10:50:24;;;;;;;4.53;1.70;;;;;;;;;;5034278;28;20176;-45
2021/10/22 10:52:59;;;;;;;4.80;1.27;;;;;;;;;;5027820;28;20247;-46
2021/10/22 10:55:40;;;;;;;5.00;1.23;;;;;;;;;;5027055;28;20179;-45
2021/10/22 10:58:09;;;;;;;3.40;1.40;;;;;;;;;;5023949;28;20224;-46
2021/10/22 11:00:49;;;;;;;2.70;1.38;;;;;;;;;;5028925;28;20191;-45
2021/10/22 11:03:16;;;;;;;3.05;1.30;;;;;;;;;;5035144;28;20210;-45
2021/10/22 11:05:46;;;;;;;4.78;1.20;;;;;;;;;;5028107;28;20205;-45
2021/10/22 11:08:17;;;;;;;3.13;1.20;;;;;;;;;;5015981;28;20553;-45
2021/10/22 11:11:07;;;;;;;2.88;1.10;;;;;;;;;;5016847;28;20195;-45
2021/10/22 11:13:43;;;;;;;3.90;1.40;;;;;;;;;;5033463;28;20206;-45
2021/10/22 11:19:08;;;;;;;4.38;1.17;;;;;;;;;;5029951;28;20187;-45
2021/10/22 11:21:36;;;;;;;2.90;1.30;;;;;;;;;;5035599;28;20562;-46
2021/10/22 11:24:04;;;;;;;2.90;1.40;;;;;;;;;;5029512;28;20395;-45
2021/10/22 11:26:30;;;;;;;5.70;1.45;;;;;;;;;;5024245;28;20215;-45
2021/10/22 11:28:59;;;;;;;3.17;1.13;;;;;;;;;;5016387;28;20180;-45
2021/10/22 11:31:36;;;;;;;3.00;1.30;;;;;;;;;;5019724;28;20175;-45
2021/10/22 11:34:03;;;;;;;6.65;1.40;;;;;;;;;;5034554;28;20247;-45
2021/10/22 11:36:29;;;;;;;2.35;1.23;;;;;;;;;;5023396;28;20183;-45
2021/10/22 11:38:55;;;;;;;4.32;1.42;;;;;;;;;;5031446;28;20233;-45
2021/10/22 11:41:22;;;;;;;4.93;1.90;;;;;;;;;;5021796;28;20215;-45
2021/10/22 11:44:06;;;;;;;4.43;1.40;;;;;;;;;;5034346;28;20263;-45
2021/10/22 11:46:42;;;;;;;4.75;1.38;;;;;;;;;;5024951;28;20540;-45
2021/10/22 11:49:08;;;;;;;2.28;1.20;;;;;;;;;;5026940;28;20581;-45
2021/10/22 11:51:34;;;;;;;5.50;0.95;;;;;;;;;;5034526;28;20178;-45
2021/10/22 11:54:00;;;;;;;4.03;1.40;;;;;;;;;;5034388;28;20164;-45
2021/10/22 11:56:27;;;;;;;3.35;1.23;;;;;;;;;;5019803;28;20192;-45
2021/10/22 11:58:53;;;;;;;2.45;1.00;;;;;;;;;;5015476;28;20200;-45
2021/10/22 12:01:22;;;;;;;6.35;1.30;;;;;;;;;;5028436;28;20285;-45
2021/10/22 12:03:55;;;;;;;6.15;1.60;;;;;;;;;;5020936;28;20204;-45
2021/10/22 12:06:21;;;;;;;3.40;1.00;;;;;;;;;;5022596;28;20644;-45
2021/10/22 12:08:53;;;;;;;2.30;1.10;;;;;;;;;;5020839;28;20216;-45
2021/10/22 12:11:20;;;;;;;3.22;1.02;;;;;;;;;;5015842;28;20235;-47
2021/10/22 12:13:46;;;;;;;2.70;1.20;;;;;;;;;;5015027;28;20230;-45
2021/10/22 12:16:16;;;;;;;3.17;1.23;;;;;;;;;;5022975;28;20583;-45
2021/10/22 12:18:46;;;;;;;3.65;1.40;;;;;;;;;;5023172;28;20184;-45
2021/10/22 12:21:12;;;;;;;1.92;1.20;;;;;;;;;;5014959;28;20198;-45
2021/10/22 12:23:39;;;;;;;2.15;1.25;;;;;;;;;;5027166;28;20187;-45
2021/10/22 12:26:17;;;;;;;4.07;1.10;;;;;;;;;;5026596;28;20207;-45
2021/10/22 12:28:55;;;;;;;5.13;1.20;;;;;;;;;;5023411;28;20514;-46
2021/10/22 12:31:28;;;;;;;3.08;1.10;;;;;;;;;;5014130;28;20203;-45
2021/10/22 12:34:10;;;;;;;2.17;1.30;;;;;;;;;;5031554;28;20403;-45
2021/10/22 12:36:36;;;;;;;3.63;1.30;;;;;;;;;;5033176;28;20207;-45
2021/10/22 12:39:22;;;;;;;2.92;1.35;;;;;;;;;;5020006;28;20624;-45
2021/10/22 12:41:48;;;;;;;2.65;1.10;;;;;;;;;;5014217;28;20188;-45
2021/10/22 12:44:14;;;;;;;4.20;1.42;;;;;;;;;;5014225;28;20176;-45
2021/10/22 12:46:56;;;;;;;2.35;1.10;;;;;;;;;;5023708;28;20215;-45
2021/10/22 12:49:27;;;;;;;2.45;1.13;;;;;;;;;;5025266;28;20190;-45
2021/10/22 12:51:56;;;;;;;3.03;1.30;;;;;;;;;;5034054;28;20172;-45
2021/10/22 12:54:23;;;;;;;3.08;1.10;;;;;;;;;;5033907;28;20644;-45
2021/10/22 12:56:59;;;;;;;3.60;1.27;;;;;;;;;;5022606;28;20185;-45
2021/10/22 12:59:29;;;;;;;2.20;1.13;;;;;;;;;;5014330;28;20182;-45
2021/10/22 13:01:55;;;;;;;3.20;1.50;;;;;;;;;;5014455;28;20232;-45
2021/10/22 13:04:23;;;;;;;2.35;1.30;;;;;;;;;;5012799;28;20169;-46
2021/10/22 13:22:30;;;;;;;3.25;1.00;;;;;;;;;;5017970;28;20614;-45
2021/10/22 13:24:56;;;;;;;3.90;1.20;;;;;;;;;;5013380;28;20232;-45
2021/10/22 13:27:23;;;;;;;4.05;1.17;;;;;;;;;;5028138;28;20830;-45
2021/10/22 13:29:54;;;;;;;1.83;1.10;;;;;;;;;;5026636;28;20568;-45
2021/10/22 13:32:20;;;;;;;2.67;1.20;;;;;;;;;;5014608;28;20187;-45
2021/10/22 13:34:46;;;;;;;2.92;1.42;;;;;;;;;;5023909;28;20199;-47
2021/10/22 13:37:12;;;;;;;3.13;1.30;;;;;;;;;;5028332;28;20287;-45
2021/10/22 13:39:38;;;;;;;3.72;1.00;;;;;;;;;;5035235;28;20176;-45
2021/10/22 13:42:04;;;;;;;1.83;0.90;;;;;;;;;;5036700;28;20460;-45
2021/10/22 13:44:31;;;;;;;2.13;1.10;;;;;;;;;;5036995;28;20196;-45
2021/10/22 13:46:57;;;;;;;3.80;1.40;;;;;;;;;;5035004;28;20219;-45
2021/10/22 13:49:23;;;;;;;5.57;1.17;;;;;;;;;;5032158;28;20198;-45
2021/10/22 13:51:49;;;;;;;1.15;0.80;;;;;;;;;;5036812;28;20176;-45
2021/10/22 13:54:15;;;;;;;3.53;1.38;;;;;;;;;;5036916;28;20176;-45
2021/10/22 13:56:41;;;;;;;2.55;1.05;;;;;;;;;;5027980;28;20552;-45
2021/10/22 13:59:07;;;;;;;1.38;0.82;;;;;;;;;;5032066;28;20187;-45
2021/10/22 14:01:33;;;;;;;2.50;1.00;;;;;;;;;;5036818;28;20195;-45
2021/10/22 14:03:59;;;;;;;2.30;1.20;;;;;;;;;;5034975;28;20191;-45
2021/10/22 14:06:25;;;;;;;1.45;0.90;;;;;;;;;;5033071;28;20203;-45
2021/10/22 14:08:55;;;;;;;2.88;1.35;;;;;;;;;;5035484;28;20233;-45
2021/10/22 14:11:24;;;;;;;1.95;0.90;;;;;;;;;;5018602;28;20181;-45
2021/10/22 14:13:56;;;;;;;2.83;1.05;;;;;;;;;;5016611;28;20176;-45
2021/10/22 14:16:47;;;;;;;1.65;0.88;;;;;;;;;;5023720;28;20294;-45
2021/10/22 14:19:24;;;;;;;1.85;0.85;;;;;;;;;;5022274;28;20180;-45
2021/10/22 14:29:51;;;;;;;1.95;0.90;;;;;;;;;;5017273;28;20199;-45
2021/10/22 14:32:17;;;;;;;1.73;0.90;;;;;;;;;;5022529;28;20437;-45
2021/10/22 14:34:43;;;;;;;1.67;1.00;;;;;;;;;;5035451;28;20263;-45
2021/10/22 14:37:09;;;;;;;2.45;1.00;;;;;;;;;;5024120;28;20176;-45
2021/10/22 14:39:35;;;;;;;2.72;1.00;;;;;;;;;;5033149;28;20306;-45
2021/10/22 14:42:06;;;;;;;1.83;1.00;;;;;;;;;;5035021;28;20179;-46
2021/10/22 14:44:36;;;;;;;1.90;0.90;;;;;;;;;;5028055;28;20278;-45
2021/10/22 14:47:33;;;;;;;1.48;1.02;;;;;;;;;;5020955;28;20180;-45
2021/10/22 14:49:52;;;;;;;2.03;1.00;;;;;;;;;;5035172;28;20295;-45
2021/10/22 14:52:21;;;;;;;1.58;0.70;;;;;;;;;;5034941;28;20203;-45
2021/10/22 14:54:53;;;;;;;1.25;0.70;;;;;;;;;;5035198;28;20183;-45
2021/10/22 14:57:19;;;;;;;1.48;0.88;;;;;;;;;;5027678;28;20180;-45
2021/10/22 14:59:45;;;;;;;2.25;1.15;;;;;;;;;;5021359;28;20184;-45
2021/10/22 15:02:15;;;;;;;1.80;0.70;;;;;;;;;;5026552;28;20219;-45
2021/10/22 15:04:45;;;;;;;2.78;1.00;;;;;;;;;;5015754;28;20238;-45
2021/10/22 15:07:12;;;;;;;2.53;0.93;;;;;;;;;;5026519;28;20460;-45
2021/10/22 15:09:38;;;;;;;1.38;0.70;;;;;;;;;;5021651;28;20187;-45
2021/10/22 15:12:05;;;;;;;1.15;0.73;;;;;;;;;;5032150;28;20677;-45
2021/10/22 15:14:32;;;;;;;2.42;0.70;;;;;;;;;;5015437;28;20201;-46
2021/10/22 15:16:59;;;;;;;2.55;1.00;;;;;;;;;;5025002;28;20270;-45
2021/10/22 15:19:25;;;;;;;1.30;0.90;;;;;;;;;;5030431;28;20184;-45
2021/10/22 15:21:51;;;;;;;1.35;1.00;;;;;;;;;;5025488;28;20562;-46